Victoria Falls, Zimbabwe
Current Conditions -  °F | °C
As of 8:00 PM on Monday 20 Oct 2014 (Local Time) from FBKE Reporting Station
Few Clouds Few Clouds  
Wind Chill: 82°   Ceiling: Unl
Heat Index: 82°   Visibility: 6mi
Dew Point: 39°   Wind: 3mph
Humidity: 21%   Direction: 150°SSE
Pressure: 29.97"   Gusts: NA
Location:  17.93°S, 25.84°E
Report Text: FBKE 201800Z 15003KT 100V230 9999 FEW030 28/04 Q1015
Loading
Personal Weather Stations






























Interactive Weather Map
Tropical Storm Tracking
New forecast layout! Learn more

10-Day Weather Forecast

Advertisements
Track Severe Weather on mobile